Weather at Ferkessédougou Airport [CLOSED]

Public forecast

Using degrees Celsius for public forecast. Weather courtesy of forecast.io.

Closest aviation weather report (METAR) to Ferkessédougou Airport

Report is more than 6 hours old.

Closest report is Bobo Dioulasso Airport, 108.1 nm (200.3 km) NNE.

2022/11/14 15:00 (retrieved 2 years ago)

DFOO 141500Z 11010KT 9999 FEW026 34/15 Q1013

Closest aviation forecast (TAF) to Ferkessédougou Airport

Forecast is more than 12 hours old.

Closest forecast is Bobo Dioulasso Airport, 108.1 nm (200.3 km) NNE.

2023/02/22 18:00 (retrieved 1 year ago)

TAF DFOO 221700Z 2218/2318 06008KT 8000 NSC TEMPO 2218/2220 4000 HZ TEMPO 2306/2310 3500 HZ